IDBO2: Little River, Idabel, OK

Data processed at Tue May 21 2019 22:10


All information presented herein is the property of the government of the United States of America and may be revised or deleted at any time without prior notice.
Dissemination of this information without the expressed written consent of the Public Affairs Office, Tulsa District U.S. Army Corps of Engineers is strictly prohibited.
These data are gathered electronically and, as presented, have not undergone any form of quality control. These data are not guaranteed to be valid or correct.
Go to home page.
Go to station list.
Go to home page.

Upstream stations:

Downstream station:
Previous Day
Next Day
Current Day
    
SHEF ID:       IDBO2     Little River blw Lukfata Creek
STATION TYPE:  
Regulating: Stage =    27.50, Flow =    12499

               PRECIP     STAGE  RIV-FLOW  BAT-LOAD
                   in        ft       cfs      volt
              Ccp-Rev   Ccp-Rev   Ccp-Rev   Ccp-Rev
(US/Central)
05/21 00:00      0.00     19.14      6825     12.89
05/21 01:00      0.00     18.90      6675     12.89
05/21 02:00      0.00     18.66      6527     12.89
05/21 03:00      0.00     18.42      6379     12.89
05/21 04:00      0.00     18.17      6226     12.81
05/21 05:00      0.00     17.92      6074     12.81
05/21 06:00      0.00     17.69      5934     12.81
05/21 07:00      0.00     17.44      5784     12.81
05/21 08:00      0.00     17.20      5640     12.89
05/21 09:00      0.00     16.98      5508     13.29
05/21 10:00      0.00     16.76      5378     13.68
05/21 11:00      0.00     16.54      5248     13.84
05/21 12:00      0.18     16.34      5131     13.44
05/21 13:00      0.08     16.17      5031     13.37
05/21 14:00      0.08     16.01      4938     13.53
05/21 15:00      0.12     15.90      4875     13.60
05/21 16:00      0.00     15.81      4823     14.08
05/21 17:00      0.00     15.75      4788     14.00
05/21 18:00      0.00     15.81      4823     13.60
05/21 19:00      0.00     15.94      4898     13.53
05/21 20:00      0.00     16.11      4997     13.53
05/21 21:00      0.00     16.28      5096     13.21
05/21 22:00      ----      ----      ----      ----
05/21 23:00      ----      ----      ----      ----